Time;durP1;ratioP1;P1;durP2;ratioP2;P2;SDS_P1;SDS_P2;PMS_P1;PMS_P2;Temp;Humidity;BMP_temperature;BMP_pressure;BME280_temperature;BME280_humidity;BME280_pressure;Samples;Min_cycle;Max_cycle;Signal;HPM_P1;HPM_P2
2023/03/30 00:13:34;;;;;;;12.95;7.97;;;11.60;99.90;;;;;;6267948;22;20026;-96
2023/03/30 00:16:01;;;;;;;13.10;8.00;;;11.60;99.90;;;;;;6260405;22;20018;-96
2023/03/30 00:42:31;;;;;;;11.20;6.70;;;11.70;99.90;;;;;;6323718;22;20023;-96
2023/03/30 02:18:45;;;;;;;13.60;5.40;;;11.80;99.90;;;;;;6268382;22;20023;-96
2023/03/30 02:31:19;;;;;;;9.73;5.28;;;11.80;99.90;;;;;;6288362;22;20035;-96
2023/03/30 02:34:13;;;;;;;11.10;5.05;;;11.80;99.90;;;;;;6269569;22;20023;-96
2023/03/30 02:36:51;;;;;;;;;;;11.80;99.90;;;;;;6303761;22;20034;-96
2023/03/30 02:39:16;;;;;;;10.15;4.85;;;11.70;99.90;;;;;;6261736;22;19938;-96
2023/03/30 02:44:45;;;;;;;11.13;5.20;;;11.70;99.90;;;;;;6271897;22;20019;-96
2023/03/30 02:47:35;;;;;;;13.20;5.18;;;11.70;99.90;;;;;;6264410;22;20109;-96
2023/03/30 02:50:27;;;;;;;10.27;4.85;;;11.70;99.90;;;;;;6296096;22;20023;-96
2023/03/30 02:53:09;;;;;;;10.45;4.85;;;11.80;99.90;;;;;;6289501;22;20024;-96
2023/03/30 02:55:54;;;;;;;9.13;4.45;;;11.80;99.90;;;;;;6291221;22;20022;-96
2023/03/30 02:58:54;;;;;;;12.93;4.65;;;11.80;99.90;;;;;;6290346;22;20020;-96
2023/03/30 03:04:52;;;;;;;10.05;5.20;;;11.80;99.90;;;;;;6286174;22;20649;-96
2023/03/30 03:07:19;;;;;;;11.15;4.63;;;11.70;99.90;;;;;;6273124;22;20099;-96
2023/03/30 03:09:45;;;;;;;14.60;5.10;;;11.80;99.90;;;;;;6272919;22;20007;-96
2023/03/30 03:12:18;;;;;;;10.63;4.50;;;11.80;99.90;;;;;;6268144;22;20018;-96
2023/03/30 03:20:44;;;;;;;9.75;4.70;;;11.70;99.90;;;;;;6296248;22;20067;-96
2023/03/30 03:23:10;;;;;;;10.43;4.28;;;11.80;99.90;;;;;;6327467;22;20026;-96
2023/03/30 03:25:35;;;;;;;11.82;4.18;;;11.70;99.90;;;;;;6303436;22;20055;-96
2023/03/30 03:28:01;;;;;;;10.23;3.85;;;11.70;99.90;;;;;;6298479;22;20080;-96
2023/03/30 03:30:27;;;;;;;10.35;3.92;;;11.70;99.90;;;;;;6323097;22;20023;-96
2023/03/30 03:32:52;;;;;;;9.48;3.63;;;11.70;99.90;;;;;;6318213;22;20019;-96
2023/03/30 03:35:18;;;;;;;10.00;3.70;;;11.70;99.90;;;;;;6296963;22;19995;-96
2023/03/30 03:37:50;;;;;;;14.55;3.97;;;11.70;99.90;;;;;;6332725;22;20028;-96
2023/03/30 03:40:16;;;;;;;8.80;4.00;;;11.70;99.90;;;;;;6335015;22;20006;-96
2023/03/30 03:42:42;;;;;;;8.15;3.92;;;11.70;99.90;;;;;;6265075;22;20035;-96
2023/03/30 03:45:08;;;;;;;9.00;4.10;;;11.70;99.90;;;;;;6272845;22;20043;-96
2023/03/30 03:47:34;;;;;;;6.82;3.60;;;11.70;99.90;;;;;;6270677;22;20071;-96
2023/03/30 03:50:02;;;;;;;9.93;3.80;;;11.70;99.90;;;;;;6297244;22;20016;-96
2023/03/30 03:52:31;;;;;;;6.65;3.33;;;11.70;99.90;;;;;;6282298;22;20061;-96
2023/03/30 03:55:11;;;;;;;10.07;3.63;;;11.70;99.90;;;;;;6268856;22;20051;-96
2023/03/30 03:57:39;;;;;;;8.48;3.85;;;11.70;99.90;;;;;;6286788;22;20058;-96
2023/03/30 04:00:18;;;;;;;10.13;4.05;;;11.70;99.90;;;;;;6289353;22;20016;-96
2023/03/30 04:03:22;;;;;;;8.23;3.67;;;11.70;99.90;;;;;;6279084;22;20098;-95
2023/03/30 04:09:37;;;;;;;7.70;3.35;;;11.70;99.90;;;;;;6238827;22;20023;-96
2023/03/30 04:12:05;;;;;;;10.00;3.80;;;11.70;99.90;;;;;;6283562;22;20114;-96
2023/03/30 04:17:22;;;;;;;8.88;3.72;;;11.70;99.90;;;;;;6273718;22;20020;-96
2023/03/30 04:19:58;;;;;;;11.25;3.42;;;11.80;99.90;;;;;;6296907;22;20027;-96
2023/03/30 04:22:24;;;;;;;9.98;3.60;;;11.80;99.90;;;;;;6287192;22;20024;-92
2023/03/30 04:24:53;;;;;;;9.68;3.72;;;11.80;99.90;;;;;;6278527;22;20045;-94
2023/03/30 04:27:18;;;;;;;11.52;3.45;;;11.80;99.90;;;;;;6280995;22;20012;-95
2023/03/30 04:29:47;;;;;;;13.18;3.70;;;11.80;99.90;;;;;;6289436;22;20019;-94
2023/03/30 04:32:19;;;;;;;11.25;3.17;;;11.80;99.90;;;;;;6279257;22;20008;-94
2023/03/30 04:34:47;;;;;;;9.35;3.35;;;11.80;99.90;;;;;;6276955;22;20019;-95
2023/03/30 04:37:17;;;;;;;9.38;3.22;;;11.80;99.90;;;;;;6278346;22;20095;-95
2023/03/30 04:39:43;;;;;;;9.13;3.28;;;11.80;99.90;;;;;;6277012;22;20008;-96
2023/03/30 04:42:13;;;;;;;10.98;3.10;;;11.80;99.90;;;;;;6287370;22;20019;-95
2023/03/30 04:44:41;;;;;;;8.18;2.97;;;11.80;99.90;;;;;;6287544;22;20011;-95
2023/03/30 04:47:07;;;;;;;15.50;3.33;;;11.80;99.90;;;;;;6288754;22;20103;-94
2023/03/30 04:49:33;;;;;;;10.75;3.00;;;11.90;99.90;;;;;;6290550;22;19996;-96
2023/03/30 04:51:58;;;;;;;10.30;2.97;;;11.90;99.90;;;;;;6295310;22;20014;-95
2023/03/30 04:54:24;;;;;;;13.20;3.38;;;11.90;99.90;;;;;;6281996;22;20019;-95
2023/03/30 04:56:50;;;;;;;12.30;3.00;;;11.90;99.90;;;;;;6285499;22;20016;-96
2023/03/30 04:59:16;;;;;;;10.95;3.17;;;11.90;99.90;;;;;;6284573;22;20012;-96
2023/03/30 05:01:41;;;;;;;10.85;3.40;;;12.00;99.90;;;;;;6281592;22;20019;-94
2023/03/30 05:04:07;;;;;;;11.45;2.95;;;12.10;99.90;;;;;;6281019;22;20008;-95
2023/03/30 05:06:33;;;;;;;12.85;3.50;;;12.00;99.90;;;;;;6279329;22;20065;-94
2023/03/30 05:08:59;;;;;;;8.38;3.03;;;12.10;99.90;;;;;;6280485;22;20022;-96
2023/03/30 05:11:25;;;;;;;10.60;3.28;;;12.10;99.90;;;;;;6279348;22;20379;-93
2023/03/30 05:13:52;;;;;;;10.75;3.17;;;12.10;99.90;;;;;;6280596;22;20019;-94
2023/03/30 05:16:17;;;;;;;10.07;2.95;;;12.10;99.90;;;;;;6278293;22;20061;-93
2023/03/30 05:18:43;;;;;;;11.07;3.67;;;12.10;99.90;;;;;;6278435;22;20015;-93
2023/03/30 05:21:09;;;;;;;12.13;3.45;;;12.10;99.90;;;;;;6270529;22;20048;-91
2023/03/30 05:23:35;;;;;;;9.75;3.70;;;12.10;99.90;;;;;;6279345;22;20023;-96
2023/03/30 05:26:03;;;;;;;11.80;3.60;;;12.00;99.90;;;;;;6277795;22;20073;-91
2023/03/30 05:28:28;;;;;;;8.85;3.30;;;12.00;99.90;;;;;;6279318;22;20022;-92
2023/03/30 05:30:54;;;;;;;12.77;4.00;;;12.00;99.90;;;;;;6278021;22;20382;-92
2023/03/30 05:33:21;;;;;;;12.07;3.80;;;12.00;99.90;;;;;;6276983;22;20016;-92
2023/03/30 05:35:46;;;;;;;11.50;3.80;;;12.00;99.90;;;;;;6279393;22;20087;-92
2023/03/30 05:38:12;;;;;;;8.52;3.55;;;12.00;99.90;;;;;;6277167;22;20019;-92
2023/03/30 05:40:38;;;;;;;15.70;4.05;;;12.00;99.90;;;;;;6277321;22;20026;-91
2023/03/30 05:43:03;;;;;;;10.63;3.65;;;11.90;99.90;;;;;;6279915;22;20023;-91
2023/03/30 05:45:29;;;;;;;11.23;3.80;;;11.90;99.90;;;;;;6276924;22;20020;-92
2023/03/30 05:47:54;;;;;;;9.90;3.58;;;11.90;99.90;;;;;;6278841;22;20016;-92
2023/03/30 05:50:21;;;;;;;11.60;4.05;;;11.90;99.90;;;;;;6276226;22;20012;-89
2023/03/30 05:52:47;;;;;;;10.05;3.45;;;11.90;99.90;;;;;;6276719;22;20366;-91
2023/03/30 05:55:14;;;;;;;10.07;3.78;;;11.90;99.90;;;;;;6279640;22;20443;-93
2023/03/30 05:57:40;;;;;;;8.88;3.42;;;11.90;99.90;;;;;;6280568;22;20046;-90
2023/03/30 06:00:07;;;;;;;10.02;3.33;;;11.90;99.90;;;;;;6278994;22;20018;-89
2023/03/30 06:02:33;;;;;;;8.43;3.60;;;11.90;99.90;;;;;;6276415;22;20019;-90
2023/03/30 06:05:00;;;;;;;11.70;3.40;;;11.90;99.90;;;;;;6277605;22;20015;-94
2023/03/30 06:07:26;;;;;;;10.93;4.10;;;11.90;99.90;;;;;;6277020;22;20098;-95
2023/03/30 06:09:52;;;;;;;11.68;3.70;;;11.80;99.90;;;;;;6289419;22;20011;-96
2023/03/30 06:12:18;;;;;;;11.85;3.90;;;11.90;99.90;;;;;;6262271;22;20015;-89
2023/03/30 06:14:44;;;;;;;13.65;4.07;;;11.90;99.90;;;;;;6276959;22;20016;-93
2023/03/30 06:17:14;;;;;;;10.60;3.65;;;11.80;99.90;;;;;;6253643;22;20086;-94
2023/03/30 06:19:41;;;;;;;11.13;4.03;;;11.90;99.90;;;;;;6252543;22;20047;-94
2023/03/30 06:22:06;;;;;;;10.05;3.45;;;11.90;99.90;;;;;;6252412;22;20015;-92
2023/03/30 06:24:32;;;;;;;9.93;3.60;;;12.00;99.90;;;;;;6279426;22;20340;-94
2023/03/30 06:26:58;;;;;;;9.10;3.47;;;12.00;99.90;;;;;;6252844;22;20069;-93
2023/03/30 06:29:24;;;;;;;11.52;3.22;;;11.90;99.90;;;;;;6252536;22;20149;-94
2023/03/30 06:31:50;;;;;;;11.25;3.40;;;12.00;99.90;;;;;;6252999;22;20015;-95
2023/03/30 06:34:16;;;;;;;13.52;3.67;;;12.00;99.90;;;;;;6251988;22;20015;-94
2023/03/30 06:36:42;;;;;;;9.95;3.45;;;12.00;99.90;;;;;;6252352;22;20061;-93
2023/03/30 06:39:09;;;;;;;12.82;3.30;;;12.00;99.90;;;;;;6252895;22;20020;-95
2023/03/30 06:41:34;;;;;;;9.07;2.90;;;12.00;99.90;;;;;;6253306;22;20019;-96
2023/03/30 06:44:00;;;;;;;7.82;3.10;;;12.10;99.90;;;;;;6280421;22;20027;-95
2023/03/30 06:46:26;;;;;;;8.95;2.78;;;12.20;99.90;;;;;;6256726;22;20012;-96
2023/03/30 06:48:52;;;;;;;15.48;3.60;;;12.10;99.90;;;;;;6260889;22;20024;-96
2023/03/30 06:51:18;;;;;;;15.10;3.08;;;12.20;99.90;;;;;;6287268;22;20467;-96
2023/03/30 06:53:44;;;;;;;12.68;2.83;;;12.20;99.90;;;;;;6257568;22;20015;-95
2023/03/30 06:56:10;;;;;;;11.32;3.00;;;12.30;99.90;;;;;;6262159;22;20012;-95
2023/03/30 06:58:38;;;;;;;9.63;2.72;;;12.30;99.90;;;;;;6293978;22;20050;-96
2023/03/30 07:01:18;;;;;;;13.02;2.80;;;12.30;99.90;;;;;;6218641;22;20138;-96
2023/03/30 07:03:55;;;;;;;15.07;2.97;;;12.40;99.90;;;;;;6239953;22;20454;-94
2023/03/30 07:06:23;;;;;;;16.55;3.40;;;12.40;99.90;;;;;;6271667;22;20020;-96
2023/03/30 07:11:42;;;;;;;14.03;3.27;;;12.50;99.90;;;;;;6283639;22;20279;-96
2023/03/30 07:16:43;;;;;;;12.98;2.75;;;12.40;99.90;;;;;;6269438;22;20015;-96
2023/03/30 07:19:09;;;;;;;11.43;3.33;;;12.40;99.90;;;;;;6297193;22;20024;-95
2023/03/30 07:21:56;;;;;;;11.52;3.28;;;12.40;99.90;;;;;;6281599;22;20023;-96
2023/03/30 07:24:24;;;;;;;12.18;3.17;;;12.50;99.90;;;;;;6246024;23;20014;-96
2023/03/30 07:29:28;;;;;;;16.77;3.97;;;12.40;99.90;;;;;;6251885;22;20072;-96
2023/03/30 07:32:35;;;;;;;19.83;3.33;;;12.40;99.90;;;;;;6270538;22;20038;-96
2023/03/30 07:40:57;;;;;;;17.80;3.92;;;12.40;99.90;;;;;;6372909;22;20074;-96
2023/03/30 07:43:23;;;;;;;17.10;3.35;;;12.40;99.90;;;;;;6364590;22;20002;-96
2023/03/30 07:45:49;;;;;;;23.05;4.03;;;12.40;99.90;;;;;;6259033;22;20019;-96
2023/03/30 07:51:15;;;;;;;21.50;4.20;;;12.40;99.90;;;;;;6357487;22;20003;-96
2023/03/30 07:53:46;;;;;;;21.92;3.40;;;12.40;99.90;;;;;;6326588;22;20023;-96
2023/03/30 07:56:15;;;;;;;18.25;4.43;;;12.40;99.90;;;;;;6362928;22;20015;-96
2023/03/30 07:58:41;;;;;;;21.15;3.72;;;12.40;99.90;;;;;;6357356;22;20022;-96
2023/03/30 08:01:07;;;;;;;17.77;3.90;;;12.30;99.90;;;;;;6332017;22;20018;-96
2023/03/30 08:03:33;;;;;;;21.15;4.03;;;12.30;99.90;;;;;;6328191;22;20042;-96
2023/03/30 08:06:05;;;;;;;23.10;3.97;;;12.30;99.90;;;;;;6333356;22;20069;-96
2023/03/30 08:08:37;;;;;;;20.60;3.90;;;12.30;99.90;;;;;;6330322;22;20009;-96
2023/03/30 08:11:10;;;;;;;23.13;4.32;;;12.30;99.90;;;;;;6284010;22;20018;-96
2023/03/30 08:13:43;;;;;;;21.02;3.85;;;12.30;99.90;;;;;;6331633;22;20007;-96
2023/03/30 08:16:10;;;;;;;;;;;12.30;99.90;;;;;;6328696;22;20033;-96
2023/03/30 08:18:40;;;;;;;24.80;3.83;;;12.20;99.90;;;;;;6327990;22;19950;-96
2023/03/30 08:21:11;;;;;;;22.15;4.07;;;12.20;99.90;;;;;;6330741;22;20010;-96
2023/03/30 08:23:38;;;;;;;23.60;4.07;;;12.20;99.90;;;;;;6331067;22;20015;-96
2023/03/30 08:26:29;;;;;;;24.40;4.47;;;12.20;99.90;;;;;;6304269;22;20021;-96
2023/03/30 08:28:58;;;;;;;25.35;4.50;;;12.20;99.90;;;;;;6356570;22;20026;-96
2023/03/30 08:34:43;;;;;;;25.40;4.05;;;12.20;99.90;;;;;;6289041;22;20008;-96
2023/03/30 08:37:10;;;;;;;20.77;4.05;;;12.10;99.90;;;;;;6278770;22;20079;-96
2023/03/30 08:39:39;;;;;;;20.42;3.92;;;12.20;99.90;;;;;;6323076;22;20828;-95
2023/03/30 08:42:39;;;;;;;25.95;4.20;;;12.20;99.90;;;;;;6299725;22;20027;-96
2023/03/30 08:45:09;;;;;;;22.98;4.40;;;12.10;99.90;;;;;;6272073;22;20016;-96
2023/03/30 08:47:39;;;;;;;26.20;4.90;;;12.10;99.90;;;;;;6261305;22;20016;-95
2023/03/30 08:50:51;;;;;;;25.08;4.45;;;12.10;99.90;;;;;;6275332;22;20018;-96
2023/03/30 08:53:17;;;;;;;26.65;4.40;;;12.10;99.90;;;;;;6269672;22;20020;-96
2023/03/30 08:56:14;;;;;;;23.52;4.35;;;12.10;99.90;;;;;;6264722;22;20047;-95
2023/03/30 08:59:04;;;;;;;23.85;4.07;;;12.10;99.90;;;;;;6269070;22;20023;-96
2023/03/30 09:02:09;;;;;;;24.75;4.40;;;12.10;99.90;;;;;;6260607;22;20024;-96
2023/03/30 09:07:13;;;;;;;25.10;4.18;;;12.10;99.90;;;;;;6270792;22;20051;-96
2023/03/30 09:09:44;;;;;;;27.38;4.55;;;12.20;99.90;;;;;;6280112;22;20012;-96
2023/03/30 09:12:36;;;;;;;26.08;4.43;;;12.20;99.90;;;;;;6264015;22;20015;-96
2023/03/30 09:15:34;;;;;;;27.65;4.68;;;12.20;99.90;;;;;;6262187;22;20012;-96
2023/03/30 09:18:35;;;;;;;23.00;4.15;;;12.20;99.90;;;;;;6293093;22;20047;-96
2023/03/30 09:33:42;;;;;;;21.42;3.42;;;12.40;99.90;;;;;;6291367;22;20016;-96
2023/03/30 09:36:15;;;;;;;23.60;3.58;;;12.50;99.90;;;;;;6290171;22;20019;-96
2023/03/30 09:38:42;;;;;;;23.02;3.85;;;12.50;99.90;;;;;;6293050;22;20019;-95
2023/03/30 09:41:38;;;;;;;21.92;3.63;;;12.60;99.90;;;;;;6268893;22;19999;-96
2023/03/30 09:44:11;;;;;;;23.83;3.67;;;12.60;99.90;;;;;;6272752;22;20004;-96
2023/03/30 09:46:37;;;;;;;19.00;3.63;;;12.60;99.90;;;;;;6275514;22;20016;-96
2023/03/30 09:49:14;;;;;;;25.67;3.72;;;12.70;99.90;;;;;;6264780;22;20025;-96
2023/03/30 09:54:48;;;;;;;20.20;3.63;;;12.70;99.90;;;;;;6286756;22;20023;-95
2023/03/30 09:57:31;;;;;;;24.08;4.07;;;12.70;99.90;;;;;;6278567;22;20004;-96
2023/03/30 09:59:58;;;;;;;;;;;12.70;99.90;;;;;;6277542;22;20003;-96
2023/03/30 10:02:27;;;;;;;22.95;4.03;;;12.70;99.90;;;;;;6275741;22;19914;-96
2023/03/30 10:04:59;;;;;;;24.85;4.10;;;12.70;99.90;;;;;;6302340;22;20019;-96
2023/03/30 10:07:33;;;;;;;22.88;3.78;;;12.70;99.90;;;;;;6330769;22;20030;-96
2023/03/30 10:10:25;;;;;;;21.83;4.07;;;12.70;99.90;;;;;;6269391;22;20039;-96
2023/03/30 10:12:54;;;;;;;17.80;3.45;;;12.70;99.90;;;;;;6274571;22;20004;-96
2023/03/30 10:15:30;;;;;;;22.13;3.60;;;12.70;99.90;;;;;;6271388;22;20027;-96
2023/03/30 10:21:51;;;;;;;18.00;3.33;;;12.70;99.80;;;;;;6274236;22;20012;-96
2023/03/30 10:24:20;;;;;;;17.50;3.20;;;12.70;99.90;;;;;;6245651;23;20011;-96
2023/03/30 10:26:54;;;;;;;18.42;3.65;;;12.70;99.90;;;;;;6224087;23;20012;-90
2023/03/30 10:29:23;;;;;;;19.73;3.15;;;12.70;99.80;;;;;;6246970;23;20361;-91
2023/03/30 10:32:07;;;;;;;23.13;3.83;;;12.80;99.70;;;;;;6247484;23;20486;-96
2023/03/30 10:34:39;;;;;;;21.70;3.80;;;12.80;99.50;;;;;;6248022;23;20013;-92
2023/03/30 10:37:10;;;;;;;26.55;4.03;;;12.80;99.50;;;;;;6221302;23;20040;-90
2023/03/30 10:39:39;;;;;;;19.73;3.75;;;12.80;99.40;;;;;;6221936;23;20024;-91
2023/03/30 10:42:08;;;;;;;22.67;3.95;;;12.90;99.30;;;;;;6247305;23;20053;-92
2023/03/30 10:44:40;;;;;;;19.88;3.40;;;12.90;99.40;;;;;;6246797;23;20460;-91
2023/03/30 10:47:43;;;;;;;21.00;3.72;;;12.90;99.10;;;;;;6246879;23;20012;-89
2023/03/30 10:50:53;;;;;;;20.20;3.53;;;12.90;98.70;;;;;;6219593;23;20021;-93
2023/03/30 10:53:32;;;;;;;18.15;3.35;;;12.90;98.90;;;;;;6186422;23;20070;-90
2023/03/30 10:56:13;;;;;;;23.50;3.92;;;12.90;98.90;;;;;;6245811;23;20091;-88
2023/03/30 10:58:48;;;;;;;20.38;4.00;;;13.00;98.80;;;;;;6220733;23;20019;-89
2023/03/30 11:01:54;;;;;;;21.63;3.88;;;13.00;99.30;;;;;;6220329;23;20019;-90
2023/03/30 11:04:35;;;;;;;19.55;3.65;;;13.00;98.90;;;;;;6171461;23;20025;-95
2023/03/30 11:07:01;;;;;;;20.77;3.25;;;13.00;99.00;;;;;;6222290;23;20098;-89
2023/03/30 11:09:33;;;;;;;23.20;4.30;;;13.10;99.00;;;;;;6246515;23;20038;-89
2023/03/30 11:12:19;;;;;;;23.75;3.78;;;13.10;99.00;;;;;;6248464;23;20009;-95
2023/03/30 11:14:59;;;;;;;20.40;3.65;;;13.20;98.70;;;;;;6247018;23;20062;-93
2023/03/30 11:17:30;;;;;;;21.92;3.75;;;13.30;98.70;;;;;;6244751;23;20074;-89
2023/03/30 11:20:00;;;;;;;20.08;3.60;;;13.30;98.50;;;;;;6218264;23;20030;-92
2023/03/30 11:22:35;;;;;;;22.52;4.35;;;13.30;98.20;;;;;;6219448;23;20453;-92
2023/03/30 11:25:08;;;;;;;20.33;3.72;;;13.40;98.10;;;;;;6246148;23;20109;-93
2023/03/30 11:27:43;;;;;;;18.25;3.65;;;13.40;98.20;;;;;;6219682;23;20452;-94
2023/03/30 11:30:15;;;;;;;22.58;4.10;;;13.40;98.40;;;;;;6246116;23;20012;-94
2023/03/30 11:32:58;;;;;;;21.92;3.83;;;13.50;98.80;;;;;;6218809;23;20020;-95
2023/03/30 11:35:48;;;;;;;20.60;4.13;;;13.60;98.70;;;;;;6245716;23;20054;-94
2023/03/30 11:38:26;;;;;;;23.45;4.25;;;13.70;98.60;;;;;;6246619;23;20024;-93
2023/03/30 11:41:10;;;;;;;20.55;4.07;;;13.70;98.20;;;;;;6223235;23;20444;-94
2023/03/30 11:43:36;;;;;;;23.23;3.90;;;13.80;97.80;;;;;;6246405;23;20012;-93
2023/03/30 11:46:18;;;;;;;21.73;4.05;;;13.90;98.00;;;;;;6218646;23;20012;-94
2023/03/30 11:49:09;;;;;;;21.65;3.60;;;13.90;97.90;;;;;;6247657;23;20023;-91
2023/03/30 11:51:52;;;;;;;24.92;4.28;;;14.00;97.80;;;;;;6221104;23;20043;-90
2023/03/30 11:55:07;;;;;;;21.15;4.35;;;14.10;97.50;;;;;;6220333;23;20027;-92
2023/03/30 11:57:44;;;;;;;20.45;4.10;;;14.10;97.00;;;;;;6216150;23;20016;-92
2023/03/30 12:00:25;;;;;;;26.40;4.53;;;14.10;96.90;;;;;;6216920;23;20468;-91
2023/03/30 12:03:18;;;;;;;25.08;4.63;;;14.10;97.10;;;;;;6243867;23;20027;-91
2023/03/30 12:05:47;;;;;;;27.13;4.53;;;14.20;97.00;;;;;;6215749;23;20020;-91
2023/03/30 12:08:31;;;;;;;24.73;4.47;;;14.20;97.10;;;;;;6216947;23;20271;-90
2023/03/30 12:11:12;;;;;;;27.73;4.70;;;14.20;96.80;;;;;;6218612;23;20016;-91
2023/03/30 12:13:38;;;;;;;28.23;5.25;;;14.20;96.90;;;;;;6218911;23;20379;-90
2023/03/30 12:16:12;;;;;;;30.25;4.82;;;14.20;96.70;;;;;;6219994;23;20020;-92
2023/03/30 12:18:41;;;;;;;22.88;4.30;;;14.20;96.40;;;;;;6219800;23;20043;-92
2023/03/30 12:21:31;;;;;;;27.50;4.75;;;14.20;96.40;;;;;;6219537;23;20019;-90
2023/03/30 12:24:33;;;;;;;26.23;5.07;;;14.20;96.50;;;;;;6248142;23;20023;-92
2023/03/30 12:26:59;;;;;;;25.02;4.50;;;14.20;96.70;;;;;;6245415;23;20051;-88
2023/03/30 12:29:47;;;;;;;23.80;4.45;;;14.20;96.70;;;;;;6218614;23;20012;-88
2023/03/30 12:32:24;;;;;;;29.38;4.70;;;14.20;96.10;;;;;;6218859;23;20016;-85
2023/03/30 12:34:50;;;;;;;26.70;4.53;;;14.20;96.20;;;;;;6245630;23;20022;-88
2023/03/30 12:37:27;;;;;;;25.70;4.85;;;14.30;96.60;;;;;;6245853;23;20052;-90
2023/03/30 12:40:07;;;;;;;25.40;4.93;;;14.30;96.30;;;;;;6219223;23;20020;-88
2023/03/30 12:42:38;;;;;;;21.75;4.30;;;14.30;96.10;;;;;;6218965;23;20090;-90
2023/03/30 12:45:28;;;;;;;26.25;4.13;;;14.30;96.10;;;;;;6219991;23;20020;-91
2023/03/30 12:48:01;;;;;;;27.70;4.60;;;14.30;96.20;;;;;;6219024;23;20016;-91
2023/03/30 12:50:54;;;;;;;28.17;4.97;;;14.30;96.30;;;;;;6219486;23;20333;-91
2023/03/30 12:53:34;;;;;;;25.92;4.78;;;14.30;96.20;;;;;;6246573;23;20054;-90
2023/03/30 12:56:07;;;;;;;23.00;4.88;;;14.30;96.30;;;;;;6246057;23;20020;-90
2023/03/30 12:58:50;;;;;;;26.33;4.78;;;14.20;96.00;;;;;;6246464;23;20012;-92
2023/03/30 13:01:26;;;;;;;23.45;4.60;;;14.20;95.80;;;;;;6219532;23;20101;-91
2023/03/30 13:04:01;;;;;;;30.00;5.28;;;14.20;96.20;;;;;;6219501;23;20012;-90
2023/03/30 13:06:55;;;;;;;38.22;5.75;;;14.10;96.10;;;;;;6247123;23;20042;-91
2023/03/30 13:09:24;;;;;;;27.55;5.05;;;14.10;96.20;;;;;;6218433;23;20449;-90
2023/03/30 13:11:52;;;;;;;27.17;5.57;;;14.10;96.40;;;;;;6246844;23;20016;-89
2023/03/30 13:14:25;;;;;;;25.67;4.78;;;14.10;96.40;;;;;;6245928;23;20384;-89
2023/03/30 13:16:51;;;;;;;23.48;4.15;;;14.00;96.50;;;;;;6246363;23;20340;-90
2023/03/30 13:19:34;;;;;;;23.98;4.85;;;14.00;96.60;;;;;;6220949;23;20012;-91
2023/03/30 13:22:09;;;;;;;;;;;14.00;96.60;;;;;;6247478;23;20079;-90
2023/03/30 13:24:40;;;;;;;25.80;4.75;;;14.00;96.20;;;;;;6247568;23;19923;-90
2023/03/30 13:27:18;;;;;;;32.72;5.63;;;14.00;96.70;;;;;;6221039;23;20383;-88
2023/03/30 13:30:06;;;;;;;24.50;4.93;;;14.00;96.80;;;;;;6220436;23;20019;-89
2023/03/30 13:32:50;;;;;;;24.40;4.60;;;14.00;96.40;;;;;;6220662;23;20012;-90
2023/03/30 13:35:31;;;;;;;31.13;5.38;;;14.00;96.70;;;;;;6247165;23;20027;-89
2023/03/30 13:38:15;;;;;;;30.90;5.22;;;14.00;96.60;;;;;;6247231;23;20024;-89
2023/03/30 13:41:06;;;;;;;28.85;5.00;;;14.00;96.90;;;;;;6220657;23;20016;-89
2023/03/30 13:44:02;;;;;;;23.42;5.03;;;14.00;96.80;;;;;;6220439;23;20016;-91
2023/03/30 13:46:48;;;;;;;26.70;4.57;;;14.00;96.70;;;;;;6219370;23;20401;-91
2023/03/30 13:49:16;;;;;;;27.10;4.53;;;14.00;96.80;;;;;;6247834;23;20051;-92
2023/03/30 13:51:42;;;;;;;28.15;5.10;;;14.10;96.90;;;;;;6221245;23;20016;-92
2023/03/30 13:54:29;;;;;;;24.92;5.00;;;14.10;96.80;;;;;;6221450;23;20020;-93
2023/03/30 13:57:09;;;;;;;30.00;5.53;;;14.10;96.60;;;;;;6248818;23;20366;-95
2023/03/30 13:59:40;;;;;;;25.52;4.68;;;14.10;96.70;;;;;;6219637;23;20023;-93
2023/03/30 14:02:10;;;;;;;26.40;4.68;;;14.10;96.80;;;;;;6219825;23;20015;-92
2023/03/30 14:04:36;;;;;;;32.03;5.78;;;14.10;96.70;;;;;;6219804;23;20016;-92
2023/03/30 14:07:15;;;;;;;27.40;4.82;;;14.10;96.80;;;;;;6219546;23;20038;-91
2023/03/30 14:09:42;;;;;;;28.70;5.30;;;14.10;96.90;;;;;;6220541;23;20016;-93
2023/03/30 14:12:12;;;;;;;30.98;5.18;;;14.10;96.80;;;;;;6219832;23;20347;-93
2023/03/30 14:14:46;;;;;;;28.63;6.13;;;14.10;96.80;;;;;;6246390;23;20016;-95
2023/03/30 14:17:18;;;;;;;29.55;5.50;;;14.10;96.90;;;;;;6220852;23;20428;-95
2023/03/30 14:20:08;;;;;;;26.98;5.18;;;14.10;97.00;;;;;;6219708;23;20016;-92
2023/03/30 14:22:39;;;;;;;29.00;5.50;;;14.10;96.60;;;;;;6220320;23;20020;-93
2023/03/30 14:25:26;;;;;;;22.95;5.65;;;14.10;96.70;;;;;;6220307;23;20088;-91
2023/03/30 14:27:51;;;;;;;25.30;4.80;;;14.10;96.60;;;;;;6219830;23;20016;-92
2023/03/30 14:30:30;;;;;;;27.10;6.53;;;14.00;96.80;;;;;;6220102;23;20015;-93
2023/03/30 14:33:06;;;;;;;33.15;6.72;;;14.10;97.00;;;;;;6247453;23;20023;-94
2023/03/30 14:35:32;;;;;;;28.50;5.20;;;14.00;96.90;;;;;;6220483;23;20027;-93
2023/03/30 14:37:58;;;;;;;29.70;5.15;;;14.10;97.00;;;;;;6221236;23;20056;-92
2023/03/30 14:40:23;;;;;;;30.45;5.63;;;14.10;96.90;;;;;;6221159;23;20024;-94
2023/03/30 14:42:50;;;;;;;27.75;5.40;;;14.10;96.90;;;;;;6221614;23;20016;-94
2023/03/30 14:45:17;;;;;;;33.78;5.13;;;14.10;97.10;;;;;;6247731;23;20091;-93
2023/03/30 14:47:46;;;;;;;35.70;6.03;;;14.10;97.20;;;;;;6247704;23;20016;-94
2023/03/30 14:50:14;;;;;;;33.53;5.47;;;14.10;97.40;;;;;;6220690;23;20012;-92
2023/03/30 14:52:44;;;;;;;27.38;5.75;;;14.00;97.30;;;;;;6221423;23;20047;-93
2023/03/30 14:55:20;;;;;;;31.40;4.75;;;14.00;97.10;;;;;;6246623;23;20094;-94
2023/03/30 14:57:46;;;;;;;29.77;5.30;;;14.00;97.40;;;;;;6220830;23;20039;-92
2023/03/30 15:00:21;;;;;;;30.33;5.78;;;14.00;97.20;;;;;;6219987;23;20016;-94
2023/03/30 15:03:08;;;;;;;29.20;5.43;;;14.00;97.20;;;;;;6247648;23;20016;-92
2023/03/30 15:05:40;;;;;;;32.40;5.68;;;14.00;96.90;;;;;;6220626;23;20019;-92
2023/03/30 15:08:11;;;;;;;28.63;5.65;;;14.00;97.30;;;;;;6248855;23;20012;-92
2023/03/30 15:10:45;;;;;;;25.98;5.07;;;14.00;97.20;;;;;;6249079;23;20139;-91
2023/03/30 15:13:21;;;;;;;32.63;5.90;;;14.00;97.30;;;;;;6225432;23;20042;-96
2023/03/30 15:15:47;;;;;;;30.65;5.07;;;14.00;97.50;;;;;;6228605;23;20038;-95
2023/03/30 15:18:19;;;;;;;30.40;5.40;;;13.90;97.40;;;;;;6234536;23;20448;-95
2023/03/30 15:20:45;;;;;;;28.52;5.60;;;14.00;97.30;;;;;;6247261;23;20012;-93
2023/03/30 15:23:12;;;;;;;28.98;5.50;;;14.00;97.40;;;;;;6221354;23;20070;-91
2023/03/30 15:25:38;;;;;;;32.15;5.45;;;14.00;97.50;;;;;;6221305;23;20337;-89
2023/03/30 15:28:05;;;;;;;32.78;6.18;;;14.00;97.50;;;;;;6221140;23;20024;-90
2023/03/30 15:30:38;;;;;;;34.17;5.65;;;14.00;97.30;;;;;;6219852;23;20023;-90
2023/03/30 15:33:06;;;;;;;25.05;5.68;;;14.00;97.00;;;;;;6220936;23;20027;-90
2023/03/30 15:35:33;;;;;;;32.83;5.78;;;14.00;97.30;;;;;;6247657;23;20013;-95
2023/03/30 15:38:21;;;;;;;29.90;5.70;;;14.10;97.20;;;;;;6247360;23;20012;-93
2023/03/30 15:40:48;;;;;;;30.00;5.57;;;14.10;97.20;;;;;;6209859;23;20017;-96
2023/03/30 15:43:26;;;;;;;29.48;5.43;;;14.10;97.30;;;;;;6220157;23;20019;-94
2023/03/30 15:46:13;;;;;;;30.80;5.55;;;14.10;97.10;;;;;;6219921;23;20016;-93
2023/03/30 15:48:49;;;;;;;31.73;5.97;;;14.00;97.20;;;;;;6220131;23;20518;-93
2023/03/30 15:51:18;;;;;;;33.90;6.10;;;14.00;97.40;;;;;;6220603;23;20012;-94
2023/03/30 15:53:58;;;;;;;34.65;6.43;;;14.00;97.30;;;;;;6250495;23;20016;-96
2023/03/30 15:56:33;;;;;;;29.40;6.03;;;14.00;97.60;;;;;;6220901;23;20016;-93
2023/03/30 15:58:58;;;;;;;33.13;6.90;;;14.00;97.70;;;;;;6220207;23;20456;-93
2023/03/30 16:01:46;;;;;;;33.67;5.90;;;14.00;97.80;;;;;;6220119;23;20070;-93
2023/03/30 16:04:15;;;;;;;35.28;6.47;;;14.00;97.90;;;;;;6219092;23;20778;-93
2023/03/30 16:06:41;;;;;;;34.78;8.95;;;14.00;98.10;;;;;;6219864;23;20020;-92
2023/03/30 16:09:08;;;;;;;38.85;7.25;;;14.00;98.10;;;;;;6220186;23;20024;-91
2023/03/30 16:11:34;;;;;;;44.72;14.75;;;14.00;98.20;;;;;;6246107;23;20042;-91
2023/03/30 16:14:00;;;;;;;34.75;7.10;;;14.00;98.00;;;;;;6219953;23;20452;-92
2023/03/30 16:16:26;;;;;;;40.25;6.65;;;14.00;98.30;;;;;;6219128;23;20016;-90
2023/03/30 16:18:51;;;;;;;36.13;6.35;;;14.00;98.30;;;;;;6245976;23;20375;-89
2023/03/30 16:21:17;;;;;;;33.22;6.07;;;13.90;97.90;;;;;;6219319;23;20330;-94
2023/03/30 16:23:44;;;;;;;29.20;6.18;;;14.00;98.00;;;;;;6220110;23;20016;-92
2023/03/30 16:26:12;;;;;;;31.77;5.82;;;13.90;97.90;;;;;;6219006;23;20123;-93
2023/03/30 16:28:38;;;;;;;34.10;6.15;;;13.90;97.80;;;;;;6220200;23;20445;-93
2023/03/30 16:31:27;;;;;;;31.75;5.60;;;13.90;98.00;;;;;;6246154;23;20067;-92